createdAt,value
2018-04-18T00:01:09.719Z,1033.02
2018-04-18T00:02:37.038Z,1033.04
2018-04-18T00:04:04.248Z,1033.05
2018-04-18T00:05:31.594Z,1033.06
2018-04-18T00:06:58.815Z,1033.04
2018-04-18T00:08:26.169Z,1033.03
2018-04-18T00:09:53.567Z,1033.02
2018-04-18T00:11:20.925Z,1033.01
2018-04-18T00:12:48.091Z,1033.02
2018-04-18T00:14:15.369Z,1033.01
2018-04-18T00:15:42.772Z,1033.02
2018-04-18T00:17:10.064Z,1033.01
2018-04-18T00:18:37.314Z,1033.02
2018-04-18T00:20:04.635Z,1033.04
2018-04-18T00:21:32.127Z,1033.04
2018-04-18T00:22:59.333Z,1033.05
2018-04-18T00:24:26.589Z,1033.05
2018-04-18T00:25:53.966Z,1033.06
2018-04-18T00:27:21.189Z,1033.06
2018-04-18T00:28:48.507Z,1033.09
2018-04-18T00:30:15.665Z,1033.09
2018-04-18T00:31:42.789Z,1033.08
2018-04-18T00:33:10.042Z,1033.10
2018-04-18T00:34:37.223Z,1033.13
2018-04-18T00:36:04.406Z,1033.15
2018-04-18T00:37:31.709Z,1033.15
2018-04-18T00:38:58.962Z,1033.14
2018-04-18T00:40:26.284Z,1033.15
2018-04-18T00:41:53.651Z,1033.15
2018-04-18T00:43:21.082Z,1033.15
2018-04-18T00:44:48.284Z,1033.17
2018-04-18T00:46:15.522Z,1033.16
2018-04-18T00:47:42.887Z,1033.17
2018-04-18T00:49:10.366Z,1033.17
2018-04-18T00:50:37.748Z,1033.17
2018-04-18T00:52:04.981Z,1033.16
2018-04-18T00:53:32.192Z,1033.13
2018-04-18T00:54:59.535Z,1033.13
2018-04-18T00:56:26.834Z,1033.13
2018-04-18T00:57:54.118Z,1033.15
2018-04-18T00:59:21.407Z,1033.17
2018-04-18T01:00:48.709Z,1033.19
2018-04-18T01:02:15.960Z,1033.18
2018-04-18T01:03:43.296Z,1033.19
2018-04-18T01:05:10.701Z,1033.19
2018-04-18T01:06:37.878Z,1033.19
2018-04-18T01:08:05.188Z,1033.16
2018-04-18T01:09:32.415Z,1033.16
2018-04-18T01:10:59.783Z,1033.19
2018-04-18T01:12:27.155Z,1033.18
2018-04-18T01:13:54.384Z,1033.19
2018-04-18T01:15:21.804Z,1033.19
2018-04-18T01:16:49.072Z,1033.17
2018-04-18T01:18:16.297Z,1033.14
2018-04-18T01:19:43.687Z,1033.15
2018-04-18T01:21:10.884Z,1033.16
2018-04-18T01:22:38.213Z,1033.14
2018-04-18T01:24:05.535Z,1033.14
2018-04-18T01:25:32.560Z,1033.17
2018-04-18T01:26:59.906Z,1033.18
2018-04-18T01:28:27.107Z,1033.20
2018-04-18T01:29:54.530Z,1033.21
2018-04-18T01:31:21.835Z,1033.26
2018-04-18T01:32:49.114Z,1033.28
2018-04-18T01:34:16.418Z,1033.27
2018-04-18T01:35:43.732Z,1033.27
2018-04-18T01:37:11.028Z,1033.26
2018-04-18T01:38:38.304Z,1033.24
2018-04-18T01:40:05.576Z,1033.21
2018-04-18T01:41:32.797Z,1033.23
2018-04-18T01:43:00.041Z,1033.21
2018-04-18T01:44:27.362Z,1033.19
2018-04-18T01:45:54.689Z,1033.18
2018-04-18T01:47:21.982Z,1033.16
2018-04-18T01:48:49.323Z,1033.19
2018-04-18T01:50:16.429Z,1033.19
2018-04-18T01:51:43.671Z,1033.17
2018-04-18T01:53:11.140Z,1033.19
2018-04-18T01:54:38.190Z,1033.19
2018-04-18T01:56:05.566Z,1033.20
2018-04-18T01:57:32.751Z,1033.19
2018-04-18T01:59:00.001Z,1033.23
2018-04-18T02:00:27.307Z,1033.23
2018-04-18T02:01:54.549Z,1033.22
2018-04-18T02:03:21.714Z,1033.24
2018-04-18T02:04:49.031Z,1033.26
2018-04-18T02:06:16.317Z,1033.25
2018-04-18T02:07:43.646Z,1033.26
2018-04-18T02:09:10.783Z,1033.29
2018-04-18T02:10:38.077Z,1033.28
2018-04-18T02:12:05.355Z,1033.29
2018-04-18T02:13:32.758Z,1033.30
2018-04-18T02:15:00.049Z,1033.28
2018-04-18T02:16:27.268Z,1033.30
2018-04-18T02:17:54.603Z,1033.31
2018-04-18T02:19:21.864Z,1033.33
2018-04-18T02:20:49.018Z,1033.30
2018-04-18T02:22:16.126Z,1033.29
2018-04-18T02:23:43.507Z,1033.29
2018-04-18T02:25:10.724Z,1033.29
2018-04-18T02:26:37.895Z,1033.30
2018-04-18T02:28:05.250Z,1033.30
2018-04-18T02:29:32.561Z,1033.29
2018-04-18T02:30:59.666Z,1033.27
2018-04-18T02:32:27.150Z,1033.26
2018-04-18T02:33:54.449Z,1033.27
2018-04-18T02:35:21.789Z,1033.27
2018-04-18T02:36:49.031Z,1033.29
2018-04-18T02:38:16.167Z,1033.27
2018-04-18T02:39:43.442Z,1033.27
2018-04-18T02:41:10.581Z,1033.26
2018-04-18T02:42:38.061Z,1033.24
2018-04-18T02:44:05.318Z,1033.22
2018-04-18T02:45:32.733Z,1033.23
2018-04-18T02:47:00.166Z,1033.21
2018-04-18T02:48:27.530Z,1033.24
2018-04-18T02:49:54.763Z,1033.23
2018-04-18T02:51:21.752Z,1033.23
2018-04-18T02:52:49.016Z,1033.23
2018-04-18T02:54:16.344Z,1033.24
2018-04-18T02:55:43.513Z,1033.25
2018-04-18T02:57:10.916Z,1033.26
2018-04-18T02:58:38.207Z,1033.25
2018-04-18T03:00:05.467Z,1033.24
2018-04-18T03:01:32.670Z,1033.24
2018-04-18T03:03:00.023Z,1033.25
2018-04-18T03:04:27.515Z,1033.25
2018-04-18T03:05:54.826Z,1033.26
2018-04-18T03:07:22.006Z,1033.29
2018-04-18T03:08:49.352Z,1033.32
2018-04-18T03:10:16.657Z,1033.34
2018-04-18T03:11:43.957Z,1033.35
2018-04-18T03:13:11.317Z,1033.36
2018-04-18T03:14:38.623Z,1033.35
2018-04-18T03:16:05.944Z,1033.37
2018-04-18T03:17:33.097Z,1033.39
2018-04-18T03:19:00.668Z,1033.40
2018-04-18T03:20:27.901Z,1033.41
2018-04-18T03:21:55.223Z,1033.39
2018-04-18T03:23:22.393Z,1033.39
2018-04-18T03:24:49.645Z,1033.36
2018-04-18T03:26:16.872Z,1033.36
2018-04-18T03:27:44.240Z,1033.35
2018-04-18T03:29:11.513Z,1033.36
2018-04-18T03:30:38.863Z,1033.37
2018-04-18T03:32:06.158Z,1033.37
2018-04-18T03:33:33.472Z,1033.38
2018-04-18T03:35:00.694Z,1033.37
2018-04-18T03:36:27.899Z,1033.37
2018-04-18T03:37:55.228Z,1033.39
2018-04-18T03:39:22.585Z,1033.42
2018-04-18T03:40:49.875Z,1033.41
2018-04-18T03:42:16.961Z,1033.43
2018-04-18T03:43:44.289Z,1033.43
2018-04-18T03:45:11.555Z,1033.43
2018-04-18T03:46:38.966Z,1033.47
2018-04-18T03:48:06.182Z,1033.47
2018-04-18T03:49:33.477Z,1033.50
2018-04-18T03:51:00.729Z,1033.50
2018-04-18T03:52:28.032Z,1033.52
2018-04-18T03:53:55.239Z,1033.52
2018-04-18T03:55:22.529Z,1033.53
2018-04-18T03:56:49.672Z,1033.54
2018-04-18T03:58:16.922Z,1033.54
2018-04-18T03:59:44.387Z,1033.52
2018-04-18T04:01:11.703Z,1033.52
2018-04-18T04:02:38.937Z,1033.54
2018-04-18T04:04:06.313Z,1033.56
2018-04-18T04:05:33.583Z,1033.57
2018-04-18T04:07:00.924Z,1033.60
2018-04-18T04:08:28.319Z,1033.62
2018-04-18T04:09:55.528Z,1033.62
2018-04-18T04:11:22.594Z,1033.61
2018-04-18T04:12:49.863Z,1033.60
2018-04-18T04:14:16.929Z,1033.60
2018-04-18T04:15:44.429Z,1033.61
2018-04-18T04:17:11.750Z,1033.61
2018-04-18T04:18:39.101Z,1033.62
2018-04-18T04:20:06.422Z,1033.64
2018-04-18T04:21:33.723Z,1033.63
2018-04-18T04:23:01.151Z,1033.65
2018-04-18T04:24:28.457Z,1033.63
2018-04-18T04:25:55.576Z,1033.64
2018-04-18T04:27:22.931Z,1033.62
2018-04-18T04:28:50.297Z,1033.64
2018-04-18T04:30:17.625Z,1033.64
2018-04-18T04:31:45.170Z,1033.65
2018-04-18T04:33:12.454Z,1033.64
2018-04-18T04:34:39.971Z,1033.62
2018-04-18T04:36:07.528Z,1033.64
2018-04-18T04:37:34.758Z,1033.64
2018-04-18T04:39:02.152Z,1033.68
2018-04-18T04:40:29.615Z,1033.71
2018-04-18T04:41:56.577Z,1033.72
2018-04-18T04:43:23.765Z,1033.74
2018-04-18T04:44:50.934Z,1033.72
2018-04-18T04:46:18.183Z,1033.75
2018-04-18T04:47:45.226Z,1033.74
2018-04-18T04:49:13.602Z,1033.76
2018-04-18T04:50:39.971Z,1033.79
2018-04-18T04:52:06.950Z,1033.79
2018-04-18T04:53:34.078Z,1033.81
2018-04-18T04:55:01.373Z,1033.83
2018-04-18T04:56:28.501Z,1033.86
2018-04-18T04:57:55.727Z,1033.87
2018-04-18T04:59:22.933Z,1033.89
2018-04-18T05:00:50.186Z,1033.91
2018-04-18T05:02:17.427Z,1033.90
2018-04-18T05:03:44.661Z,1033.92
2018-04-18T05:05:11.797Z,1033.95
2018-04-18T05:06:39.087Z,1033.94
2018-04-18T05:08:06.476Z,1033.94
2018-04-18T05:09:33.899Z,1033.93
2018-04-18T05:11:01.213Z,1033.95
2018-04-18T05:12:28.584Z,1033.96
2018-04-18T05:13:55.828Z,1033.98
2018-04-18T05:15:23.009Z,1033.99
2018-04-18T05:16:50.232Z,1034.02
2018-04-18T05:18:17.483Z,1034.00
2018-04-18T05:19:44.734Z,1034.02
2018-04-18T05:21:11.939Z,1034.03
2018-04-18T05:22:39.395Z,1034.05
2018-04-18T05:24:06.732Z,1034.06
2018-04-18T05:25:34.122Z,1034.07
2018-04-18T05:27:01.447Z,1034.08
2018-04-18T05:28:28.852Z,1034.10
2018-04-18T05:29:56.096Z,1034.10
2018-04-18T05:31:23.274Z,1034.11
2018-04-18T05:32:50.597Z,1034.10
2018-04-18T05:34:17.694Z,1034.11
2018-04-18T05:35:45.109Z,1034.11
2018-04-18T05:37:12.426Z,1034.10
2018-04-18T05:38:39.672Z,1034.10
2018-04-18T05:40:07.049Z,1034.11
2018-04-18T05:41:34.407Z,1034.12
2018-04-18T05:43:01.728Z,1034.15
2018-04-18T05:44:29.044Z,1034.13
2018-04-18T05:45:56.493Z,1034.14
2018-04-18T05:47:23.695Z,1034.14
2018-04-18T05:48:51.189Z,1034.15
2018-04-18T05:50:18.434Z,1034.14
2018-04-18T05:51:45.528Z,1034.17
2018-04-18T05:53:12.973Z,1034.18
2018-04-18T05:54:40.347Z,1034.17
2018-04-18T05:56:07.863Z,1034.14
2018-04-18T05:57:35.169Z,1034.12
2018-04-18T05:59:02.669Z,1034.14
2018-04-18T06:00:29.862Z,1034.13
2018-04-18T06:01:57.160Z,1034.13
2018-04-18T06:03:24.345Z,1034.12
2018-04-18T06:04:51.982Z,1034.12
2018-04-18T06:06:19.392Z,1034.13
2018-04-18T06:07:46.565Z,1034.14
2018-04-18T06:09:13.900Z,1034.14
2018-04-18T06:10:41.244Z,1034.12
2018-04-18T06:12:08.702Z,1034.11
2018-04-18T06:13:35.978Z,1034.11
2018-04-18T06:15:03.373Z,1034.11
2018-04-18T06:16:30.695Z,1034.12
2018-04-18T06:17:58.114Z,1034.13
2018-04-18T06:19:25.565Z,1034.15
2018-04-18T06:20:52.979Z,1034.17
2018-04-18T06:22:20.357Z,1034.17
2018-04-18T06:23:47.671Z,1034.18
2018-04-18T06:25:15.270Z,1034.16
2018-04-18T06:26:42.677Z,1034.15
2018-04-18T06:28:10.091Z,1034.14
2018-04-18T06:29:37.261Z,1034.14
2018-04-18T06:31:04.735Z,1034.13
2018-04-18T06:32:32.149Z,1034.12
2018-04-18T06:33:59.635Z,1034.11
2018-04-18T06:35:26.978Z,1034.10
2018-04-18T06:36:54.438Z,1034.15
2018-04-18T06:38:21.881Z,1034.17
2018-04-18T06:39:49.239Z,1034.17
2018-04-18T06:41:16.564Z,1034.14
2018-04-18T06:42:44.028Z,1034.17
2018-04-18T06:44:11.223Z,1034.19
2018-04-18T06:45:38.672Z,1034.17
2018-04-18T06:47:05.941Z,1034.19
2018-04-18T06:48:33.189Z,1034.21
2018-04-18T06:50:00.782Z,1034.20
2018-04-18T06:51:28.014Z,1034.21
2018-04-18T06:52:55.441Z,1034.19
2018-04-18T06:54:22.852Z,1034.20
2018-04-18T06:55:50.025Z,1034.23
2018-04-18T06:57:17.406Z,1034.24
2018-04-18T06:58:44.846Z,1034.26
2018-04-18T07:00:12.335Z,1034.27
2018-04-18T07:01:39.743Z,1034.27
2018-04-18T07:03:07.210Z,1034.28
2018-04-18T07:04:34.649Z,1034.28
2018-04-18T07:06:02.140Z,1034.31
2018-04-18T07:07:29.605Z,1034.34
2018-04-18T07:08:57.116Z,1034.34
2018-04-18T07:10:24.433Z,1034.36
2018-04-18T07:11:51.586Z,1034.35
2018-04-18T07:13:18.903Z,1034.38
2018-04-18T07:14:46.299Z,1034.37
2018-04-18T07:16:13.579Z,1034.35
2018-04-18T07:17:41.169Z,1034.39
2018-04-18T07:19:08.518Z,1034.36
2018-04-18T07:20:35.784Z,1034.38
2018-04-18T07:22:03.235Z,1034.39
2018-04-18T07:23:30.607Z,1034.38
2018-04-18T07:24:57.987Z,1034.41
2018-04-18T07:26:25.233Z,1034.39
2018-04-18T07:27:52.638Z,1034.40
2018-04-18T07:29:20.077Z,1034.42
2018-04-18T07:30:47.394Z,1034.37
2018-04-18T07:32:14.824Z,1034.40
2018-04-18T07:33:42.345Z,1034.40
2018-04-18T07:35:09.565Z,1034.42
2018-04-18T07:36:36.853Z,1034.43
2018-04-18T07:38:04.365Z,1034.45
2018-04-18T07:39:31.969Z,1034.45
2018-04-18T07:40:59.098Z,1034.45
2018-04-18T07:42:26.406Z,1034.42
2018-04-18T07:43:53.884Z,1034.45
2018-04-18T07:45:21.194Z,1034.46
2018-04-18T07:46:48.804Z,1034.49
2018-04-18T07:48:15.930Z,1034.48
2018-04-18T07:49:43.314Z,1034.50
2018-04-18T07:51:10.706Z,1034.48
2018-04-18T07:52:38.343Z,1034.49
2018-04-18T07:54:05.631Z,1034.50
2018-04-18T07:55:33.023Z,1034.51
2018-04-18T07:57:00.348Z,1034.52
2018-04-18T07:58:27.968Z,1034.55
2018-04-18T07:59:55.400Z,1034.58
2018-04-18T08:01:22.791Z,1034.62
2018-04-18T08:02:50.302Z,1034.64
2018-04-18T08:04:17.656Z,1034.68
2018-04-18T08:05:45.270Z,1034.72
2018-04-18T08:07:12.589Z,1034.75
2018-04-18T08:08:39.892Z,1034.76
2018-04-18T08:10:07.354Z,1034.76
2018-04-18T08:11:34.818Z,1034.74
2018-04-18T08:13:02.381Z,1034.72
2018-04-18T08:14:29.852Z,1034.70
2018-04-18T08:15:57.309Z,1034.70
2018-04-18T08:17:24.664Z,1034.67
2018-04-18T08:18:52.155Z,1034.68
2018-04-18T08:20:19.398Z,1034.66
2018-04-18T08:21:46.846Z,1034.70
2018-04-18T08:23:14.202Z,1034.71
2018-04-18T08:24:41.831Z,1034.75
2018-04-18T08:26:09.277Z,1034.78
2018-04-18T08:27:36.690Z,1034.77
2018-04-18T08:29:04.123Z,1034.75
2018-04-18T08:30:31.447Z,1034.73
2018-04-18T08:31:58.838Z,1034.72
2018-04-18T08:33:26.321Z,1034.72
2018-04-18T08:34:54.109Z,1034.72
2018-04-18T08:36:21.658Z,1034.73
2018-04-18T08:37:48.907Z,1034.76
2018-04-18T08:39:16.356Z,1034.76
2018-04-18T08:40:43.919Z,1034.77
2018-04-18T08:42:11.298Z,1034.77
2018-04-18T08:43:38.709Z,1034.77
2018-04-18T08:45:06.325Z,1034.78
2018-04-18T08:46:33.817Z,1034.77
2018-04-18T08:48:01.277Z,1034.79
2018-04-18T08:49:28.738Z,1034.82
2018-04-18T08:50:56.033Z,1034.83
2018-04-18T08:52:23.331Z,1034.87
2018-04-18T08:53:50.749Z,1034.89
2018-04-18T08:55:18.179Z,1034.86
2018-04-18T08:56:45.540Z,1034.86
2018-04-18T08:58:13.019Z,1034.86
2018-04-18T08:59:40.592Z,1034.86
2018-04-18T09:01:08.043Z,1034.84
2018-04-18T09:02:35.513Z,1034.84
2018-04-18T09:04:02.981Z,1034.83
2018-04-18T09:05:30.532Z,1034.82
2018-04-18T09:06:57.932Z,1034.81
2018-04-18T09:08:25.359Z,1034.79
2018-04-18T09:09:52.760Z,1034.78
2018-04-18T09:11:20.059Z,1034.81
2018-04-18T09:12:47.548Z,1034.83
2018-04-18T09:14:15.036Z,1034.83
2018-04-18T09:15:42.511Z,1034.80
2018-04-18T09:17:09.713Z,1034.78
2018-04-18T09:18:37.302Z,1034.78
2018-04-18T09:20:04.369Z,1034.78
2018-04-18T09:21:31.751Z,1034.79
2018-04-18T09:22:59.023Z,1034.80
2018-04-18T09:24:26.486Z,1034.78
2018-04-18T09:25:53.977Z,1034.75
2018-04-18T09:27:21.685Z,1034.72
2018-04-18T09:28:49.130Z,1034.69
2018-04-18T09:30:16.546Z,1034.66
2018-04-18T09:31:43.942Z,1034.65
2018-04-18T09:33:11.451Z,1034.68
2018-04-18T09:34:39.017Z,1034.67
2018-04-18T09:36:06.409Z,1034.65
2018-04-18T09:37:33.873Z,1034.62
2018-04-18T09:39:01.407Z,1034.60
2018-04-18T09:40:28.857Z,1034.62
2018-04-18T09:41:56.306Z,1034.66
2018-04-18T09:43:23.669Z,1034.66
2018-04-18T09:44:51.183Z,1034.66
2018-04-18T09:46:18.788Z,1034.70
2018-04-18T09:47:46.083Z,1034.71
2018-04-18T09:49:13.609Z,1034.69
2018-04-18T09:50:41.089Z,1034.70
2018-04-18T09:52:08.480Z,1034.70
2018-04-18T09:53:36.071Z,1034.70
2018-04-18T09:55:03.350Z,1034.73
2018-04-18T09:56:30.959Z,1034.71
2018-04-18T09:57:58.584Z,1034.71
2018-04-18T09:59:25.980Z,1034.72
2018-04-18T10:00:53.325Z,1034.71
2018-04-18T10:02:20.715Z,1034.72
2018-04-18T10:03:48.256Z,1034.70
2018-04-18T10:05:15.482Z,1034.71
2018-04-18T10:06:43.119Z,1034.76
2018-04-18T10:08:10.721Z,1034.75
2018-04-18T10:09:38.240Z,1034.73
2018-04-18T10:11:05.827Z,1034.74
2018-04-18T10:12:33.280Z,1034.74
2018-04-18T10:14:00.808Z,1034.77
2018-04-18T10:15:28.241Z,1034.76
2018-04-18T10:16:55.859Z,1034.77
2018-04-18T10:18:23.251Z,1034.75
2018-04-18T10:19:50.897Z,1034.74
2018-04-18T10:21:18.315Z,1034.72
2018-04-18T10:22:45.688Z,1034.72
2018-04-18T10:24:12.991Z,1034.71
2018-04-18T10:25:40.516Z,1034.69
2018-04-18T10:27:08.033Z,1034.66
2018-04-18T10:28:35.454Z,1034.67
2018-04-18T10:30:02.996Z,1034.66
2018-04-18T10:31:30.323Z,1034.66
2018-04-18T10:32:57.763Z,1034.66
2018-04-18T10:34:25.210Z,1034.65
2018-04-18T10:35:52.695Z,1034.63
2018-04-18T10:37:20.312Z,1034.65
2018-04-18T10:38:47.670Z,1034.64
2018-04-18T10:40:15.172Z,1034.66
2018-04-18T10:41:42.590Z,1034.63
2018-04-18T10:43:10.025Z,1034.61
2018-04-18T10:44:37.432Z,1034.61
2018-04-18T10:46:05.054Z,1034.64
2018-04-18T10:47:32.440Z,1034.63
2018-04-18T10:48:59.862Z,1034.62
2018-04-18T10:50:27.408Z,1034.62
2018-04-18T10:51:54.767Z,1034.60
2018-04-18T10:53:22.322Z,1034.55
2018-04-18T10:54:49.769Z,1034.52
2018-04-18T10:56:17.052Z,1034.53
2018-04-18T10:57:44.722Z,1034.52
2018-04-18T10:59:11.867Z,1034.58
2018-04-18T11:00:39.272Z,1034.53
2018-04-18T11:02:06.900Z,1034.57
2018-04-18T11:03:34.479Z,1034.59
2018-04-18T11:05:02.081Z,1034.53
2018-04-18T11:06:29.555Z,1034.52
2018-04-18T11:07:57.036Z,1034.51
2018-04-18T11:09:24.622Z,1034.51
2018-04-18T11:10:52.181Z,1034.56
2018-04-18T11:12:19.613Z,1034.53
2018-04-18T11:13:47.135Z,1034.56
2018-04-18T11:15:14.674Z,1034.54
2018-04-18T11:16:42.126Z,1034.52
2018-04-18T11:18:09.770Z,1034.47
2018-04-18T11:19:34.144Z,1034.45
2018-04-18T11:21:04.845Z,1034.48
2018-04-18T11:22:32.247Z,1034.48
2018-04-18T11:23:59.916Z,1034.47
2018-04-18T11:25:27.472Z,1034.49
2018-04-18T11:26:55.018Z,1034.48
2018-04-18T11:28:22.233Z,1034.47
2018-04-18T11:29:49.805Z,1034.44
2018-04-18T11:31:17.253Z,1034.40
2018-04-18T11:32:44.781Z,1034.39
2018-04-18T11:34:12.391Z,1034.42
2018-04-18T11:35:39.656Z,1034.43
2018-04-18T11:37:07.242Z,1034.43
2018-04-18T11:38:34.857Z,1034.45
2018-04-18T11:40:02.354Z,1034.36
2018-04-18T11:41:30.087Z,1034.34
2018-04-18T11:42:58.520Z,1034.37
2018-04-18T11:44:25.862Z,1034.39
2018-04-18T11:45:52.754Z,1034.39
2018-04-18T11:47:20.199Z,1034.40
2018-04-18T11:48:47.768Z,1034.37
2018-04-18T11:50:15.325Z,1034.40
2018-04-18T11:51:42.487Z,1034.37
2018-04-18T11:53:10.023Z,1034.41
2018-04-18T11:54:37.489Z,1034.42
2018-04-18T11:56:04.905Z,1034.37
2018-04-18T11:57:32.625Z,1034.36
2018-04-18T11:59:00.327Z,1034.35
2018-04-18T12:00:27.860Z,1034.27
2018-04-18T12:01:55.457Z,1034.26
2018-04-18T12:03:23.077Z,1034.28
2018-04-18T12:04:50.522Z,1034.32
2018-04-18T12:06:18.105Z,1034.33
2018-04-18T12:07:45.436Z,1034.39
2018-04-18T12:09:12.873Z,1034.40
2018-04-18T12:10:40.509Z,1034.39
2018-04-18T12:12:07.992Z,1034.34
2018-04-18T12:13:35.525Z,1034.30
2018-04-18T12:15:03.091Z,1034.25
2018-04-18T12:16:30.717Z,1034.26
2018-04-18T12:17:58.135Z,1034.28
2018-04-18T12:19:25.680Z,1034.31
2018-04-18T12:20:53.305Z,1034.29
2018-04-18T12:22:20.753Z,1034.29
2018-04-18T12:23:48.259Z,1034.27
2018-04-18T12:25:15.665Z,1034.31
2018-04-18T12:26:43.386Z,1034.28
2018-04-18T12:28:10.946Z,1034.27
2018-04-18T12:29:38.545Z,1034.26
2018-04-18T12:31:06.106Z,1034.23
2018-04-18T12:32:33.858Z,1034.20
2018-04-18T12:34:01.303Z,1034.21
2018-04-18T12:35:29.045Z,1034.21
2018-04-18T12:36:56.605Z,1034.20
2018-04-18T12:38:23.999Z,1034.22
2018-04-18T12:39:51.611Z,1034.20
2018-04-18T12:41:19.243Z,1034.17
2018-04-18T12:42:46.778Z,1034.18
2018-04-18T12:44:14.405Z,1034.16
2018-04-18T12:45:42.034Z,1034.15
2018-04-18T12:47:09.588Z,1034.17
2018-04-18T12:48:37.042Z,1034.13
2018-04-18T12:50:04.756Z,1034.07
2018-04-18T12:51:32.430Z,1034.11
2018-04-18T12:53:00.177Z,1034.10
2018-04-18T12:54:27.624Z,1034.08
2018-04-18T12:55:55.168Z,1034.11
2018-04-18T12:57:22.659Z,1034.12
2018-04-18T12:58:50.252Z,1034.07
2018-04-18T13:00:17.772Z,1034.10
2018-04-18T13:01:45.561Z,1034.09
2018-04-18T13:03:13.088Z,1034.10
2018-04-18T13:04:40.520Z,1034.10
2018-04-18T13:06:08.055Z,1034.11
2018-04-18T13:07:35.715Z,1034.13
2018-04-18T13:09:03.257Z,1034.09
2018-04-18T13:10:31.051Z,1034.03
2018-04-18T13:11:58.503Z,1034.01
2018-04-18T13:13:26.223Z,1034.08
2018-04-18T13:14:53.658Z,1034.08
2018-04-18T13:16:21.363Z,1034.08
2018-04-18T13:17:48.881Z,1034.08
2018-04-18T13:19:16.357Z,1034.04
2018-04-18T13:20:43.949Z,1034.04
2018-04-18T13:22:11.576Z,1034.02
2018-04-18T13:23:39.205Z,1034.00
2018-04-18T13:25:06.860Z,1034.01
2018-04-18T13:26:34.559Z,1034.00
2018-04-18T13:28:02.260Z,1034.00
2018-04-18T13:29:29.605Z,1034.00
2018-04-18T13:30:57.268Z,1034.01
2018-04-18T13:32:24.744Z,1034.00
2018-04-18T13:33:52.058Z,1034.01
2018-04-18T13:35:19.221Z,1034.02
2018-04-18T13:36:46.655Z,1034.03
2018-04-18T13:38:14.315Z,1033.99
2018-04-18T13:39:41.856Z,1033.96
2018-04-18T13:41:09.260Z,1033.98
2018-04-18T13:42:36.640Z,1033.99
2018-04-18T13:44:03.977Z,1034.02
2018-04-18T13:45:31.724Z,1034.00
2018-04-18T13:46:59.147Z,1033.99
2018-04-18T13:48:26.709Z,1033.98
2018-04-18T13:49:54.011Z,1033.98
2018-04-18T13:51:21.542Z,1033.96
2018-04-18T13:52:48.987Z,1033.98
2018-04-18T13:54:16.539Z,1033.96
2018-04-18T13:55:43.867Z,1033.97
2018-04-18T13:57:11.444Z,1033.95
2018-04-18T13:58:39.121Z,1033.97
2018-04-18T14:00:06.588Z,1033.98
2018-04-18T14:01:34.215Z,1033.96
2018-04-18T14:03:01.509Z,1033.96
2018-04-18T14:04:29.079Z,1033.97
2018-04-18T14:05:56.740Z,1033.96
2018-04-18T14:07:24.113Z,1033.99
2018-04-18T14:08:51.621Z,1033.98
2018-04-18T14:10:18.677Z,1034.01
2018-04-18T14:11:46.017Z,1033.97
2018-04-18T14:13:12.828Z,1033.97
2018-04-18T14:14:40.164Z,1033.97
2018-04-18T14:16:07.300Z,1033.97
2018-04-18T14:17:34.550Z,1033.98
2018-04-18T14:19:01.634Z,1033.97
2018-04-18T14:20:29.344Z,1033.94
2018-04-18T14:21:56.773Z,1033.94
2018-04-18T14:23:23.906Z,1033.95
2018-04-18T14:24:51.057Z,1033.95
2018-04-18T14:26:18.126Z,1033.95
2018-04-18T14:27:45.171Z,1033.95
2018-04-18T14:29:12.533Z,1033.98
2018-04-18T14:30:39.980Z,1033.98
2018-04-18T14:32:07.419Z,1034.02
2018-04-18T14:33:34.746Z,1033.98
2018-04-18T14:35:01.769Z,1033.99
2018-04-18T14:36:29.082Z,1033.97
2018-04-18T14:37:56.688Z,1033.97
2018-04-18T14:39:24.113Z,1033.95
2018-04-18T14:40:51.634Z,1033.92
2018-04-18T14:42:18.965Z,1033.95
2018-04-18T14:43:46.162Z,1033.92
2018-04-18T14:45:13.797Z,1033.91
2018-04-18T14:46:40.792Z,1033.93
2018-04-18T14:48:08.085Z,1033.93
2018-04-18T14:49:35.696Z,1033.95
2018-04-18T14:51:03.233Z,1033.95
2018-04-18T14:52:30.677Z,1033.94
2018-04-18T14:53:58.266Z,1033.93
2018-04-18T14:55:25.720Z,1033.92
2018-04-18T14:56:53.300Z,1033.93
2018-04-18T14:58:20.675Z,1033.93
2018-04-18T14:59:48.159Z,1033.92
2018-04-18T15:01:15.600Z,1033.93
2018-04-18T15:02:43.081Z,1033.92
2018-04-18T15:04:10.733Z,1033.92
2018-04-18T15:05:38.237Z,1033.91
2018-04-18T15:07:05.533Z,1033.93
2018-04-18T15:08:32.769Z,1033.92
2018-04-18T15:10:00.002Z,1033.96
2018-04-18T15:11:27.685Z,1033.97
2018-04-18T15:12:55.072Z,1033.96
2018-04-18T15:14:22.440Z,1033.97
2018-04-18T15:15:49.827Z,1033.94
2018-04-18T15:17:17.265Z,1033.97
2018-04-18T15:18:44.831Z,1033.96
2018-04-18T15:20:11.984Z,1033.97
2018-04-18T15:21:39.489Z,1034.00
2018-04-18T15:23:07.071Z,1034.01
2018-04-18T15:24:34.573Z,1034.02
2018-04-18T15:26:02.192Z,1034.01
2018-04-18T15:27:29.857Z,1034.07
2018-04-18T15:28:57.355Z,1034.06
2018-04-18T15:30:24.859Z,1034.05
2018-04-18T15:31:52.409Z,1034.07
2018-04-18T15:33:19.871Z,1034.10
2018-04-18T15:34:47.302Z,1034.12
2018-04-18T15:36:14.761Z,1034.14
2018-04-18T15:37:41.997Z,1034.14
2018-04-18T15:39:09.258Z,1034.14
2018-04-18T15:40:36.855Z,1034.14
2018-04-18T15:42:04.313Z,1034.15
2018-04-18T15:43:31.790Z,1034.19
2018-04-18T15:44:59.237Z,1034.17
2018-04-18T15:46:26.771Z,1034.21
2018-04-18T15:47:54.293Z,1034.23
2018-04-18T15:49:21.607Z,1034.24
2018-04-18T15:50:49.086Z,1034.27
2018-04-18T15:52:16.277Z,1034.27
2018-04-18T15:53:43.771Z,1034.28
2018-04-18T15:55:11.050Z,1034.29
2018-04-18T15:56:38.495Z,1034.28
2018-04-18T15:58:05.767Z,1034.26
2018-04-18T15:59:33.312Z,1034.28
2018-04-18T16:01:00.883Z,1034.28
2018-04-18T16:02:28.245Z,1034.31
2018-04-18T16:03:55.478Z,1034.31
2018-04-18T16:05:22.970Z,1034.30
2018-04-18T16:06:50.114Z,1034.31
2018-04-18T16:08:17.551Z,1034.31
2018-04-18T16:09:44.934Z,1034.32
2018-04-18T16:11:12.592Z,1034.31
2018-04-18T16:12:39.884Z,1034.33
2018-04-18T16:14:07.238Z,1034.33
2018-04-18T16:15:34.604Z,1034.31
2018-04-18T16:17:02.206Z,1034.30
2018-04-18T16:18:29.643Z,1034.29
2018-04-18T16:19:57.206Z,1034.31
2018-04-18T16:21:24.667Z,1034.29
2018-04-18T16:22:52.079Z,1034.33
2018-04-18T16:24:19.370Z,1034.30
2018-04-18T16:25:46.769Z,1034.32
2018-04-18T16:27:14.314Z,1034.33
2018-04-18T16:28:41.654Z,1034.32
2018-04-18T16:30:09.114Z,1034.32
2018-04-18T16:31:36.697Z,1034.33
2018-04-18T16:33:04.266Z,1034.32
2018-04-18T16:34:31.320Z,1034.31
2018-04-18T16:35:58.613Z,1034.30
2018-04-18T16:37:26.121Z,1034.30
2018-04-18T16:38:53.521Z,1034.28
2018-04-18T16:40:21.125Z,1034.30
2018-04-18T16:41:48.462Z,1034.32
2018-04-18T16:43:15.774Z,1034.32
2018-04-18T16:44:43.271Z,1034.31
2018-04-18T16:46:10.569Z,1034.30
2018-04-18T16:47:38.076Z,1034.30
2018-04-18T16:49:05.517Z,1034.33
2018-04-18T16:50:32.912Z,1034.33
2018-04-18T16:52:00.258Z,1034.34
2018-04-18T16:53:27.860Z,1034.35
2018-04-18T16:54:55.100Z,1034.33
2018-04-18T16:56:22.621Z,1034.32
2018-04-18T16:57:49.867Z,1034.31
2018-04-18T16:59:17.263Z,1034.29
2018-04-18T17:00:44.741Z,1034.27
2018-04-18T17:02:11.941Z,1034.27
2018-04-18T17:03:39.351Z,1034.23
2018-04-18T17:05:06.890Z,1034.23
2018-04-18T17:06:33.889Z,1034.22
2018-04-18T17:08:01.326Z,1034.21
2018-04-18T17:09:28.657Z,1034.20
2018-04-18T17:10:56.151Z,1034.19
2018-04-18T17:12:23.654Z,1034.21
2018-04-18T17:13:51.358Z,1034.22
2018-04-18T17:15:18.633Z,1034.20
2018-04-18T17:16:45.948Z,1034.21
2018-04-18T17:18:13.304Z,1034.19
2018-04-18T17:19:40.533Z,1034.20
2018-04-18T17:21:07.968Z,1034.18
2018-04-18T17:22:36.339Z,1034.18
2018-04-18T17:24:02.707Z,1034.17
2018-04-18T17:25:30.031Z,1034.17
2018-04-18T17:26:57.638Z,1034.19
2018-04-18T17:28:24.964Z,1034.20
2018-04-18T17:29:52.480Z,1034.21
2018-04-18T17:31:19.882Z,1034.21
2018-04-18T17:32:47.316Z,1034.25
2018-04-18T17:34:14.705Z,1034.26
2018-04-18T17:35:42.301Z,1034.26
2018-04-18T17:37:09.768Z,1034.28